Terminal Aerodrome Forecast
Issued by NWS

Home | Current Version | Previous Version | Text Only | Print | Product List | Glossary On
Versions: 1 2 3 4 5 6 7 8 9 10 11 12 13 14 15 16 17 18 19 20 21
000
FTUS44 KLIX 280558
TAFMCB
TAF
KMCB 280558Z 2806/2906 00000KT P6SM SKC
     FM281100 00000KT 1/2SM FG VV002
     FM281430 VRB03KT P6SM BKN020
     FM281700 29004KT P6SM SCT050
      TEMPO 2820/2824 16015G35KT 1SM +TSRA BKN025CB=

USA.gov is the U.S. government's official web portal to all federal, state and local government web resources and services.